Time;durP1;ratioP1;P1;durP2;ratioP2;P2;SDS_P1;SDS_P2;PMS_P1;PMS_P2;Temp;Humidity;BMP_temperature;BMP_pressure;BME280_temperature;BME280_humidity;BME280_pressure;Samples;Min_cycle;Max_cycle;Signal;HPM_P1;HPM_P2
2022/03/01 00:00:14;;;;;;;11.50;6.27;;;1.30;99.90;;;;;;5072997;28;20344;-74
2022/03/01 00:02:40;;;;;;;12.53;6.80;;;1.40;99.90;;;;;;5091221;28;20214;-73
2022/03/01 00:05:05;;;;;;;10.83;6.83;;;1.40;99.90;;;;;;5091224;28;20585;-74
2022/03/01 00:07:31;;;;;;;11.93;6.70;;;1.40;99.90;;;;;;5073447;28;20180;-74
2022/03/01 00:09:56;;;;;;;18.37;7.60;;;1.30;99.90;;;;;;5090533;28;20236;-75
2022/03/01 00:12:22;;;;;;;13.23;6.47;;;1.30;99.90;;;;;;5074483;28;20777;-74
2022/03/01 00:14:47;;;;;;;13.67;7.17;;;1.30;99.90;;;;;;5052536;28;20227;-74
2022/03/01 00:17:13;;;;;;;12.50;7.03;;;1.30;99.90;;;;;;5070605;28;20304;-74
2022/03/01 00:19:38;;;;;;;12.87;6.73;;;1.30;99.90;;;;;;5070463;28;20681;-73
2022/03/01 00:22:04;;;;;;;11.13;6.60;;;1.30;99.90;;;;;;5052988;28;20201;-74
2022/03/01 00:24:29;;;;;;;12.00;6.37;;;1.30;99.90;;;;;;5070394;28;20210;-73
2022/03/01 00:26:55;;;;;;;11.07;6.57;;;1.30;99.90;;;;;;5075586;28;20213;-74
2022/03/01 00:29:20;;;;;;;13.27;6.90;;;1.30;99.90;;;;;;5090624;28;20288;-74
2022/03/01 00:31:45;;;;;;;9.73;6.50;;;1.20;99.90;;;;;;5091599;28;20207;-73
2022/03/01 00:34:11;;;;;;;11.93;7.23;;;1.10;99.90;;;;;;5072710;28;21940;-74
2022/03/01 00:36:37;;;;;;;12.80;7.10;;;1.10;99.90;;;;;;5090908;28;20240;-74
2022/03/01 00:39:06;;;;;;;12.37;6.77;;;1.10;99.90;;;;;;5090137;28;20259;-73
2022/03/01 00:41:32;;;;;;;13.00;6.67;;;1.10;99.90;;;;;;5081203;28;20678;-73
2022/03/01 00:43:57;;;;;;;13.87;6.90;;;1.10;99.90;;;;;;5070741;28;20184;-74
2022/03/01 00:46:26;;;;;;;13.43;7.43;;;1.10;99.90;;;;;;5071177;28;20184;-75
2022/03/01 00:48:52;;;;;;;10.33;6.40;;;1.00;99.90;;;;;;5074292;28;20206;-74
2022/03/01 00:51:18;;;;;;;13.57;7.33;;;1.00;99.90;;;;;;5072520;28;20213;-74
2022/03/01 00:53:43;;;;;;;10.63;6.90;;;1.00;99.90;;;;;;5090409;28;20215;-73
2022/03/01 00:56:09;;;;;;;12.80;6.97;;;0.90;99.90;;;;;;5084090;28;20199;-73
2022/03/01 00:58:34;;;;;;;13.40;6.93;;;0.90;99.90;;;;;;5062183;28;20264;-74
2022/03/01 01:01:00;;;;;;;12.97;7.00;;;0.90;99.90;;;;;;5090693;28;20205;-73
2022/03/01 01:03:25;;;;;;;13.40;7.50;;;0.90;99.90;;;;;;5090400;28;20210;-74
2022/03/01 01:05:50;;;;;;;12.23;6.87;;;0.90;99.90;;;;;;5090598;28;20222;-74
2022/03/01 01:08:16;;;;;;;13.50;6.80;;;0.80;99.90;;;;;;5081987;28;24800;-74
2022/03/01 01:10:42;;;;;;;13.40;6.77;;;0.80;99.90;;;;;;5053301;28;20646;-73
2022/03/01 01:13:07;;;;;;;13.50;6.93;;;0.80;99.90;;;;;;5052463;28;20676;-74
2022/03/01 01:15:33;;;;;;;13.17;7.07;;;0.80;99.90;;;;;;5070173;28;20216;-73
2022/03/01 01:17:58;;;;;;;12.53;6.77;;;0.80;99.90;;;;;;5069558;28;20207;-73
2022/03/01 01:20:24;;;;;;;14.10;6.90;;;0.70;99.90;;;;;;5070073;28;20588;-74
2022/03/01 01:22:50;;;;;;;10.87;6.87;;;0.70;99.90;;;;;;5070637;28;20176;-73
2022/03/01 01:25:22;;;;;;;10.57;6.37;;;0.70;99.90;;;;;;5070140;28;20213;-74
2022/03/01 01:27:52;;;;;;;13.43;7.30;;;0.70;99.90;;;;;;5054922;28;20239;-74
2022/03/01 01:30:20;;;;;;;12.93;7.40;;;0.70;99.90;;;;;;5073753;28;20298;-76
2022/03/01 01:32:49;;;;;;;14.07;7.33;;;0.70;99.90;;;;;;5056170;28;20618;-73
2022/03/01 01:35:16;;;;;;;12.93;7.07;;;0.60;99.90;;;;;;5055860;28;20201;-79
2022/03/01 01:37:43;;;;;;;11.83;7.23;;;0.60;99.90;;;;;;5074174;28;20568;-73
2022/03/01 01:40:13;;;;;;;12.17;6.27;;;0.60;99.90;;;;;;5073649;28;20209;-74
2022/03/01 01:42:39;;;;;;;14.10;7.10;;;0.60;99.90;;;;;;5074249;28;20207;-73
2022/03/01 01:45:06;;;;;;;13.13;7.07;;;0.60;99.90;;;;;;5055853;28;20301;-74
2022/03/01 01:47:32;;;;;;;13.70;7.17;;;0.60;99.90;;;;;;5055870;28;20221;-74
2022/03/01 01:49:57;;;;;;;9.43;6.63;;;0.60;99.90;;;;;;5055138;28;20176;-74
2022/03/01 01:52:27;;;;;;;14.43;7.77;;;0.50;99.90;;;;;;5056178;28;20207;-73
2022/03/01 01:54:54;;;;;;;13.30;7.47;;;0.60;99.90;;;;;;5073529;28;20265;-73
2022/03/01 01:57:21;;;;;;;12.90;6.50;;;0.50;99.90;;;;;;5073538;28;20302;-74
2022/03/01 01:59:49;;;;;;;12.27;6.50;;;0.50;99.90;;;;;;5055051;28;20209;-73
2022/03/01 02:02:17;;;;;;;14.90;7.73;;;0.50;99.90;;;;;;5073572;28;20193;-73
2022/03/01 02:04:43;;;;;;;12.10;6.90;;;0.60;99.90;;;;;;5073550;28;20228;-74
2022/03/01 02:07:09;;;;;;;12.63;7.30;;;0.60;99.90;;;;;;5073846;23;20229;-76
2022/03/01 02:09:35;;;;;;;12.47;7.27;;;0.50;99.90;;;;;;5093324;28;20578;-76
2022/03/01 02:12:02;;;;;;;12.33;6.67;;;0.50;99.90;;;;;;5085528;28;20216;-76
2022/03/01 02:14:31;;;;;;;12.77;7.33;;;0.50;99.90;;;;;;5093617;28;20210;-77
2022/03/01 02:16:59;;;;;;;13.00;7.70;;;0.50;99.90;;;;;;5094371;28;20196;-76
2022/03/01 02:19:25;;;;;;;12.00;7.37;;;0.50;99.90;;;;;;5093187;28;20647;-76
2022/03/01 02:21:54;;;;;;;16.47;7.53;;;0.50;99.90;;;;;;5094046;28;20289;-77
2022/03/01 02:24:20;;;;;;;13.77;6.93;;;0.40;99.90;;;;;;5093926;28;20267;-77
2022/03/01 02:26:46;;;;;;;12.33;7.87;;;0.40;99.90;;;;;;5093770;28;20706;-76
2022/03/01 02:29:12;;;;;;;13.43;7.27;;;0.40;99.90;;;;;;5074926;28;20179;-78
2022/03/01 02:31:37;;;;;;;12.70;7.67;;;0.40;99.90;;;;;;5094176;28;20746;-77
2022/03/01 02:34:04;;;;;;;12.03;6.93;;;0.40;99.90;;;;;;5075698;28;20210;-76
2022/03/01 02:36:30;;;;;;;15.10;7.10;;;0.30;99.90;;;;;;5093497;28;20208;-76
2022/03/01 02:38:56;;;;;;;13.30;8.10;;;0.30;99.90;;;;;;5074101;28;20236;-76
2022/03/01 02:41:21;;;;;;;12.40;7.30;;;0.30;99.90;;;;;;5085536;28;20260;-77
2022/03/01 02:43:47;;;;;;;12.03;6.70;;;0.30;99.90;;;;;;5076303;28;20174;-76
2022/03/01 02:46:12;;;;;;;13.17;7.07;;;0.30;99.90;;;;;;5075603;28;20203;-76
2022/03/01 02:48:38;;;;;;;14.20;7.30;;;0.30;99.90;;;;;;5092333;28;20202;-77
2022/03/01 02:51:03;;;;;;;15.17;6.60;;;0.20;99.90;;;;;;5075304;28;20296;-76
2022/03/01 02:53:29;;;;;;;13.00;7.13;;;0.20;99.90;;;;;;5093162;28;20583;-77
2022/03/01 02:55:54;;;;;;;13.53;7.33;;;0.20;99.90;;;;;;5093759;28;20198;-76
2022/03/01 02:58:20;;;;;;;13.37;7.57;;;0.10;99.90;;;;;;5092511;28;20210;-76
2022/03/01 03:00:45;;;;;;;12.97;6.87;;;0.10;99.90;;;;;;5093401;28;20232;-77
2022/03/01 03:03:11;;;;;;;13.23;7.67;;;0.20;99.90;;;;;;5093242;28;20707;-77
2022/03/01 03:05:37;;;;;;;17.03;7.87;;;0.20;99.90;;;;;;5074605;28;20298;-77
2022/03/01 03:08:03;;;;;;;14.27;7.83;;;0.10;99.90;;;;;;5092316;28;20190;-76
2022/03/01 03:10:29;;;;;;;13.03;7.30;;;0.10;99.90;;;;;;5074207;28;20208;-77
2022/03/01 03:12:54;;;;;;;13.07;7.67;;;0.10;99.90;;;;;;5085716;28;20206;-77
2022/03/01 03:15:20;;;;;;;16.97;7.50;;;0.10;99.90;;;;;;5074694;28;20212;-77
2022/03/01 03:17:46;;;;;;;11.97;7.07;;;0.10;99.90;;;;;;5074135;28;20294;-77
2022/03/01 03:20:11;;;;;;;14.77;7.37;;;0.10;99.90;;;;;;5092584;28;20190;-76
2022/03/01 03:22:38;;;;;;;13.67;7.63;;;0.00;99.90;;;;;;5072951;28;20595;-77
2022/03/01 03:25:04;;;;;;;14.90;6.83;;;0.00;99.90;;;;;;5069174;28;20198;-76
2022/03/01 03:27:29;;;;;;;16.57;8.07;;;0.00;99.90;;;;;;5092562;28;20293;-77
2022/03/01 03:29:55;;;;;;;13.33;7.17;;;0.00;99.90;;;;;;5092019;28;20273;-77
2022/03/01 03:32:20;;;;;;;15.27;8.00;;;0.00;99.90;;;;;;5092949;28;20234;-78
2022/03/01 03:34:46;;;;;;;13.83;8.03;;;0.00;99.90;;;;;;5074968;28;20172;-76
2022/03/01 03:37:11;;;;;;;15.50;8.23;;;0.00;99.90;;;;;;5074435;28;20706;-76
2022/03/01 03:39:37;;;;;;;13.43;7.97;;;0.00;99.90;;;;;;5091492;28;20229;-76
2022/03/01 03:42:02;;;;;;;14.90;7.60;;;0.00;99.90;;;;;;5084365;28;20332;-76
2022/03/01 03:44:28;;;;;;;14.37;7.57;;;0.00;99.90;;;;;;5092462;28;20213;-77
2022/03/01 03:46:53;;;;;;;14.97;7.27;;;0.00;99.90;;;;;;5092896;28;20220;-76
2022/03/01 03:49:19;;;;;;;13.70;7.30;;;-0.10;99.90;;;;;;5091239;28;20586;-77
2022/03/01 03:51:45;;;;;;;14.10;6.83;;;-0.10;99.90;;;;;;5085390;28;20290;-76
2022/03/01 03:54:11;;;;;;;15.13;8.47;;;-0.10;99.90;;;;;;5077024;28;20206;-76
2022/03/01 03:56:36;;;;;;;16.10;7.93;;;-0.10;99.90;;;;;;5081432;28;20247;-80
2022/03/01 03:59:02;;;;;;;14.73;8.27;;;-0.20;99.90;;;;;;5071049;28;20184;-76
2022/03/01 04:01:28;;;;;;;19.87;7.80;;;-0.10;99.90;;;;;;5072251;28;20263;-76
2022/03/01 04:03:54;;;;;;;13.80;7.73;;;-0.20;99.90;;;;;;5053688;28;20310;-76
2022/03/01 04:06:19;;;;;;;14.83;7.87;;;-0.20;99.90;;;;;;5071613;28;20223;-77
2022/03/01 04:08:45;;;;;;;13.27;7.53;;;-0.20;99.90;;;;;;5052605;28;20249;-76
2022/03/01 04:11:11;;;;;;;11.33;7.77;;;-0.20;99.90;;;;;;5053946;28;20298;-77
2022/03/01 04:13:37;;;;;;;12.90;7.17;;;-0.20;99.90;;;;;;5053893;28;20187;-76
2022/03/01 04:16:03;;;;;;;14.40;7.60;;;-0.20;99.90;;;;;;5071475;28;20206;-76
2022/03/01 04:18:29;;;;;;;10.90;6.70;;;-0.20;99.90;;;;;;5071035;28;20214;-77
2022/03/01 04:20:54;;;;;;;14.17;7.70;;;-0.20;99.90;;;;;;5053125;28;20199;-77
2022/03/01 04:23:20;;;;;;;11.30;7.00;;;-0.20;99.90;;;;;;5073139;28;20691;-76
2022/03/01 04:25:46;;;;;;;15.83;7.73;;;-0.20;99.90;;;;;;5045666;28;20172;-76
2022/03/01 04:28:11;;;;;;;18.00;8.07;;;-0.20;99.90;;;;;;5070722;28;20302;-76
2022/03/01 04:30:37;;;;;;;12.00;7.23;;;-0.20;99.90;;;;;;5071330;28;20756;-77
2022/03/01 04:33:02;;;;;;;14.90;8.07;;;-0.20;99.90;;;;;;5071348;28;20218;-75
2022/03/01 04:35:28;;;;;;;15.63;8.00;;;-0.20;99.90;;;;;;5071103;28;20766;-77
2022/03/01 04:37:54;;;;;;;21.90;8.60;;;-0.20;99.90;;;;;;5072876;28;20202;-73
2022/03/01 04:40:19;;;;;;;14.37;8.20;;;-0.30;99.90;;;;;;5070459;28;20215;-76
2022/03/01 04:42:45;;;;;;;17.07;7.50;;;-0.30;99.90;;;;;;5079213;28;20226;-76
2022/03/01 04:45:11;;;;;;;13.57;7.87;;;-0.30;99.90;;;;;;5071298;28;20698;-76
2022/03/01 04:47:38;;;;;;;13.33;7.07;;;-0.20;99.90;;;;;;5085934;28;20215;-74
2022/03/01 04:50:06;;;;;;;13.07;7.57;;;-0.20;99.90;;;;;;5070369;28;20171;-76
2022/03/01 04:52:31;;;;;;;12.17;6.77;;;-0.10;99.90;;;;;;5071186;28;20227;-74
2022/03/01 04:54:57;;;;;;;14.80;7.83;;;-0.20;99.90;;;;;;5072629;28;20635;-75
2022/03/01 04:57:22;;;;;;;15.60;7.43;;;-0.20;99.90;;;;;;5052721;28;20283;-76
2022/03/01 04:59:48;;;;;;;14.63;7.47;;;-0.20;99.90;;;;;;5070916;28;20838;-76
2022/03/01 05:02:13;;;;;;;13.10;7.20;;;-0.20;99.90;;;;;;5082002;28;20205;-76
2022/03/01 05:04:39;;;;;;;14.40;7.67;;;-0.20;99.90;;;;;;5097602;28;20189;-76
2022/03/01 05:07:04;;;;;;;15.43;8.03;;;-0.20;99.90;;;;;;5077017;28;20218;-76
2022/03/01 05:09:30;;;;;;;19.03;10.70;;;-0.20;99.90;;;;;;5051835;28;20210;-76
2022/03/01 05:11:55;;;;;;;14.47;8.70;;;-0.30;99.90;;;;;;5075719;28;20212;-76
2022/03/01 05:14:21;;;;;;;16.03;7.63;;;-0.30;99.90;;;;;;5055849;28;20289;-74
2022/03/01 05:16:47;;;;;;;14.80;7.53;;;-0.30;99.90;;;;;;5053467;28;20208;-76
2022/03/01 05:19:13;;;;;;;15.13;6.87;;;-0.20;99.90;;;;;;5069844;28;20261;-77
2022/03/01 05:21:40;;;;;;;13.50;8.07;;;-0.30;99.90;;;;;;5052413;28;20565;-76
2022/03/01 05:24:06;;;;;;;14.30;7.67;;;-0.20;99.90;;;;;;5054143;28;20206;-77
2022/03/01 05:26:32;;;;;;;14.63;7.40;;;-0.30;99.90;;;;;;5071954;28;20688;-76
2022/03/01 05:28:58;;;;;;;16.23;8.50;;;-0.30;99.90;;;;;;5076345;28;20666;-76
2022/03/01 05:31:24;;;;;;;15.37;7.13;;;-0.30;99.90;;;;;;5070992;28;20202;-76
2022/03/01 05:33:50;;;;;;;14.67;7.60;;;-0.40;99.90;;;;;;5070417;28;20688;-78
2022/03/01 05:36:16;;;;;;;11.90;6.70;;;-0.40;99.90;;;;;;5070581;28;20294;-77
2022/03/01 05:38:42;;;;;;;15.67;8.00;;;-0.40;99.90;;;;;;5069624;28;20271;-76
2022/03/01 05:41:08;;;;;;;15.67;7.67;;;-0.40;99.90;;;;;;5070486;28;20175;-77
2022/03/01 05:43:35;;;;;;;16.60;7.83;;;-0.40;99.90;;;;;;5070862;28;20651;-77
2022/03/01 05:46:01;;;;;;;15.33;7.73;;;-0.40;99.90;;;;;;5052281;28;20221;-76
2022/03/01 05:48:26;;;;;;;15.33;7.70;;;-0.40;99.90;;;;;;5077881;28;20667;-78
2022/03/01 05:50:52;;;;;;;15.33;8.20;;;-0.40;99.90;;;;;;5070356;28;20214;-75
2022/03/01 05:53:18;;;;;;;14.60;7.97;;;-0.40;99.90;;;;;;5069407;28;20213;-75
2022/03/01 05:55:44;;;;;;;14.73;7.67;;;-0.40;99.90;;;;;;5079886;28;20202;-76
2022/03/01 05:58:09;;;;;;;14.17;8.00;;;-0.40;99.90;;;;;;5061600;28;20216;-77
2022/03/01 06:00:35;;;;;;;16.30;7.60;;;-0.40;99.90;;;;;;5080255;28;20240;-75
2022/03/01 06:03:00;;;;;;;17.43;7.97;;;-0.40;99.90;;;;;;5079986;28;20210;-76
2022/03/01 06:05:27;;;;;;;13.70;7.53;;;-0.40;99.90;;;;;;5059549;28;20236;-76
2022/03/01 06:07:53;;;;;;;17.40;7.90;;;-0.40;99.90;;;;;;5075377;28;20207;-76
2022/03/01 06:10:19;;;;;;;16.30;7.50;;;-0.30;99.90;;;;;;5068783;28;20209;-76
2022/03/01 06:12:44;;;;;;;19.73;7.90;;;-0.30;99.90;;;;;;5082148;28;20220;-76
2022/03/01 06:15:10;;;;;;;15.23;7.10;;;-0.30;99.90;;;;;;5086341;28;20198;-77
2022/03/01 06:17:36;;;;;;;16.10;7.73;;;-0.20;99.90;;;;;;5105059;28;20298;-76
2022/03/01 06:20:02;;;;;;;13.53;7.10;;;-0.20;99.90;;;;;;5082158;28;20729;-77
2022/03/01 06:22:28;;;;;;;13.50;6.97;;;0.10;99.90;;;;;;5078345;28;20183;-77
2022/03/01 06:24:56;;;;;;;15.27;7.13;;;1.20;99.90;;;;;;5077597;28;20213;-77
2022/03/01 06:27:23;;;;;;;12.10;6.87;;;2.70;99.90;;;;;;5075030;28;20202;-77
2022/03/01 06:29:48;;;;;;;13.87;7.50;;;3.30;99.90;;;;;;5093642;28;20213;-76
2022/03/01 06:32:14;;;;;;;17.37;8.07;;;4.20;99.90;;;;;;5094109;28;20220;-77
2022/03/01 06:34:40;;;;;;;15.27;7.63;;;4.90;99.90;;;;;;5094317;28;20583;-78
2022/03/01 06:37:12;;;;;;;12.53;7.37;;;5.50;99.90;;;;;;5093942;28;20217;-75
2022/03/01 06:39:39;;;;;;;12.67;7.10;;;6.10;99.90;;;;;;5070210;28;20325;-76
2022/03/01 06:42:05;;;;;;;12.67;7.10;;;6.00;99.90;;;;;;5096342;28;20232;-77
2022/03/01 06:44:30;;;;;;;14.50;7.27;;;4.50;99.90;;;;;;5074962;28;20703;-77
2022/03/01 06:46:56;;;;;;;17.37;8.17;;;5.70;99.90;;;;;;5093950;28;20191;-75
2022/03/01 06:49:21;;;;;;;12.57;7.50;;;5.90;99.90;;;;;;5074298;28;20307;-75
2022/03/01 06:51:47;;;;;;;16.40;7.33;;;5.40;99.90;;;;;;5067408;28;20269;-77
2022/03/01 06:54:12;;;;;;;13.70;7.07;;;6.30;99.90;;;;;;5093820;28;20198;-76
2022/03/01 06:56:38;;;;;;;11.13;6.97;;;7.40;99.90;;;;;;5075145;28;20287;-76
2022/03/01 06:59:03;;;;;;;14.57;7.90;;;8.00;99.90;;;;;;5073944;28;20269;-77
2022/03/01 07:01:29;;;;;;;12.13;7.97;;;7.40;99.90;;;;;;5093654;28;20175;-76
2022/03/01 07:03:54;;;;;;;14.00;7.53;;;8.00;99.90;;;;;;5092924;28;20675;-76
2022/03/01 07:06:20;;;;;;;12.30;6.67;;;8.80;99.90;;;;;;5092988;28;20226;-77
2022/03/01 07:08:45;;;;;;;12.33;7.63;;;8.90;99.90;;;;;;5095311;28;20210;-77
2022/03/01 07:11:11;;;;;;;15.83;7.77;;;8.90;99.90;;;;;;5069772;28;20206;-77
2022/03/01 07:13:37;;;;;;;12.67;7.17;;;8.50;99.90;;;;;;5093001;28;20619;-77
2022/03/01 07:16:05;;;;;;;16.87;7.70;;;8.50;99.90;;;;;;5092524;28;20198;-77
2022/03/01 07:18:30;;;;;;;14.87;7.63;;;8.30;99.90;;;;;;5073701;28;20354;-76
2022/03/01 07:20:56;;;;;;;13.17;7.10;;;7.60;99.90;;;;;;5074375;28;20194;-76
2022/03/01 07:23:21;;;;;;;15.70;7.93;;;7.70;99.90;;;;;;5092526;28;20617;-77
2022/03/01 07:25:47;;;;;;;14.47;7.73;;;8.00;99.90;;;;;;5092954;28;20356;-77
2022/03/01 07:28:12;;;;;;;12.40;7.43;;;8.00;99.90;;;;;;5072282;28;20226;-77
2022/03/01 07:30:38;;;;;;;15.57;7.33;;;7.60;99.90;;;;;;5074156;28;20294;-77
2022/03/01 07:33:03;;;;;;;15.07;7.43;;;8.20;99.90;;;;;;5092363;28;20690;-77
2022/03/01 07:35:30;;;;;;;12.53;7.40;;;9.00;99.90;;;;;;5092341;28;20234;-76
2022/03/01 07:37:55;;;;;;;14.23;8.30;;;8.30;99.90;;;;;;5074529;28;20224;-77
2022/03/01 07:40:23;;;;;;;13.03;7.20;;;8.70;99.90;;;;;;5069178;28;20210;-77
2022/03/01 07:42:49;;;;;;;17.23;8.00;;;8.90;99.90;;;;;;5074282;28;20209;-78
2022/03/01 07:45:15;;;;;;;12.37;7.40;;;9.50;99.90;;;;;;5092149;28;20579;-76
2022/03/01 07:47:41;;;;;;;12.23;7.43;;;9.00;99.90;;;;;;5092002;28;20218;-77
2022/03/01 07:50:07;;;;;;;11.20;7.00;;;8.60;99.90;;;;;;5073754;28;20686;-77
2022/03/01 07:52:33;;;;;;;10.53;7.10;;;8.70;99.90;;;;;;5092881;28;20308;-78
2022/03/01 07:54:59;;;;;;;13.10;7.27;;;8.50;99.90;;;;;;5092830;28;20227;-77
2022/03/01 07:57:24;;;;;;;15.20;7.10;;;8.40;99.90;;;;;;5074019;28;20240;-78
2022/03/01 07:59:50;;;;;;;11.57;6.80;;;9.00;99.90;;;;;;5091112;28;20625;-77
2022/03/01 08:02:15;;;;;;;14.20;6.77;;;8.70;99.90;;;;;;5073865;28;20205;-77
2022/03/01 08:04:42;;;;;;;13.50;6.80;;;8.80;99.90;;;;;;5092007;28;20210;-78
2022/03/01 08:07:09;;;;;;;13.40;8.13;;;9.10;99.90;;;;;;5094026;22;20229;-75
2022/03/01 08:09:39;;;;;;;12.13;6.73;;;9.30;99.90;;;;;;5050981;28;20211;-74
2022/03/01 08:12:05;;;;;;;12.80;7.13;;;9.10;99.90;;;;;;5071127;28;20637;-76
2022/03/01 08:14:32;;;;;;;11.90;6.93;;;8.20;99.90;;;;;;5053512;28;20727;-75
2022/03/01 08:16:58;;;;;;;13.37;6.43;;;8.00;99.90;;;;;;5053173;28;20266;-75
2022/03/01 08:19:24;;;;;;;12.77;6.77;;;8.40;99.90;;;;;;5052747;28;20713;-75
2022/03/01 08:21:50;;;;;;;11.17;6.37;;;9.00;99.90;;;;;;5053193;28;20207;-75
2022/03/01 08:24:16;;;;;;;12.37;6.27;;;9.50;99.90;;;;;;5070781;28;20207;-74
2022/03/01 08:26:41;;;;;;;12.73;6.43;;;9.20;99.90;;;;;;5052868;28;20320;-75
2022/03/01 08:29:07;;;;;;;12.20;6.93;;;9.30;99.90;;;;;;5063740;28;20547;-74
2022/03/01 08:31:32;;;;;;;10.73;6.40;;;9.50;99.90;;;;;;5069231;28;20202;-74
2022/03/01 08:33:59;;;;;;;12.63;7.37;;;9.10;99.90;;;;;;5070756;28;20198;-74
2022/03/01 08:36:26;;;;;;;11.17;5.87;;;9.00;99.90;;;;;;5061894;28;20211;-74
2022/03/01 08:38:51;;;;;;;14.50;6.83;;;9.70;99.90;;;;;;5068289;28;20702;-74
2022/03/01 08:41:17;;;;;;;14.57;7.77;;;9.60;99.40;;;;;;5086965;28;21739;-75
2022/03/01 08:43:42;;;;;;;11.23;6.13;;;8.70;99.90;;;;;;5086071;28;20201;-75
2022/03/01 08:46:12;;;;;;;11.20;6.23;;;8.50;99.90;;;;;;5090698;28;20658;-73
2022/03/01 08:48:38;;;;;;;14.60;7.50;;;8.60;99.90;;;;;;5071838;28;20206;-74
2022/03/01 08:51:05;;;;;;;13.37;7.03;;;8.10;99.90;;;;;;5072431;28;20515;-73
2022/03/01 08:53:31;;;;;;;14.50;7.23;;;8.20;99.90;;;;;;5080912;28;20206;-74
2022/03/01 08:55:57;;;;;;;16.10;7.13;;;8.70;99.90;;;;;;5087628;28;20572;-76
2022/03/01 08:58:23;;;;;;;13.67;6.77;;;8.00;99.90;;;;;;5089938;28;20217;-74
2022/03/01 09:00:48;;;;;;;18.37;7.53;;;8.40;99.90;;;;;;5090938;28;20572;-73
2022/03/01 09:03:14;;;;;;;13.87;6.93;;;8.30;99.90;;;;;;5072629;28;20202;-74
2022/03/01 09:05:39;;;;;;;12.20;6.57;;;8.40;99.90;;;;;;5090621;28;20202;-73
2022/03/01 09:08:05;;;;;;;11.73;7.17;;;8.80;99.90;;;;;;5089798;28;20619;-74
2022/03/01 09:10:31;;;;;;;10.23;6.67;;;9.00;99.90;;;;;;5066800;28;20170;-74
2022/03/01 09:12:58;;;;;;;12.73;7.87;;;9.00;99.90;;;;;;5086796;28;20206;-74
2022/03/01 09:15:26;;;;;;;14.83;6.97;;;9.00;99.90;;;;;;5072158;28;20347;-74
2022/03/01 09:17:51;;;;;;;13.03;7.23;;;9.70;99.90;;;;;;5090192;28;20206;-74
2022/03/01 09:20:18;;;;;;;13.57;7.43;;;9.30;99.60;;;;;;5072506;28;20197;-75
2022/03/01 09:22:44;;;;;;;10.90;6.63;;;8.70;99.90;;;;;;5091005;28;20175;-74
2022/03/01 09:25:10;;;;;;;11.20;6.73;;;8.80;99.90;;;;;;5090238;28;20205;-74
2022/03/01 09:27:35;;;;;;;13.93;7.13;;;8.50;99.90;;;;;;5090049;28;20210;-74
2022/03/01 09:30:02;;;;;;;12.93;6.53;;;7.80;99.90;;;;;;5071427;28;20250;-74
2022/03/01 09:32:27;;;;;;;10.33;6.70;;;7.40;99.90;;;;;;5090028;28;20222;-74
2022/03/01 09:34:55;;;;;;;12.00;6.53;;;7.30;99.90;;;;;;5090881;28;20186;-74
2022/03/01 09:37:21;;;;;;;12.83;6.77;;;7.40;99.90;;;;;;5063643;28;20710;-75
2022/03/01 09:39:46;;;;;;;10.30;6.93;;;7.60;99.90;;;;;;5076438;28;20203;-74
2022/03/01 09:42:12;;;;;;;12.80;7.00;;;7.60;99.90;;;;;;5070741;28;20203;-74
2022/03/01 09:44:39;;;;;;;12.63;7.33;;;7.70;99.90;;;;;;5070560;28;20335;-74
2022/03/01 09:47:04;;;;;;;13.10;7.10;;;7.90;99.90;;;;;;5090418;28;20674;-74
2022/03/01 09:49:30;;;;;;;12.90;6.67;;;7.70;99.90;;;;;;5093640;28;20185;-74
2022/03/01 09:51:56;;;;;;;12.03;7.40;;;7.80;99.90;;;;;;5089269;28;20349;-76
2022/03/01 09:54:24;;;;;;;14.13;6.90;;;8.20;99.90;;;;;;5075266;28;20210;-75
2022/03/01 09:56:50;;;;;;;9.77;6.33;;;8.50;99.90;;;;;;5072353;28;20214;-75
2022/03/01 09:59:16;;;;;;;12.33;6.73;;;8.30;99.20;;;;;;5091924;28;20174;-74
2022/03/01 10:01:52;;;;;;;11.23;7.00;;;7.80;99.90;;;;;;5072708;28;20175;-74
2022/03/01 10:04:18;;;;;;;10.53;6.57;;;7.90;99.90;;;;;;5092916;28;20210;-74
2022/03/01 10:06:46;;;;;;;12.33;6.63;;;7.70;99.90;;;;;;5075248;28;20229;-74
2022/03/01 10:09:20;;;;;;;10.77;6.17;;;7.50;99.90;;;;;;5089304;28;20211;-73
2022/03/01 10:11:48;;;;;;;9.80;6.57;;;7.50;99.90;;;;;;5068873;28;20217;-74
2022/03/01 10:14:14;;;;;;;12.07;6.57;;;7.80;99.90;;;;;;5084063;28;20718;-74
2022/03/01 10:16:45;;;;;;;13.07;6.17;;;7.50;99.90;;;;;;5094099;28;20190;-74
2022/03/01 10:19:21;;;;;;;11.40;6.33;;;7.20;99.90;;;;;;5074841;28;20293;-74
2022/03/01 10:21:58;;;;;;;10.67;6.97;;;7.50;99.90;;;;;;5093893;28;20201;-73
2022/03/01 10:24:23;;;;;;;11.23;6.20;;;7.50;99.90;;;;;;5093166;28;20742;-74
2022/03/01 10:26:50;;;;;;;13.57;6.23;;;7.60;99.90;;;;;;5088904;28;20287;-74
2022/03/01 10:29:16;;;;;;;11.33;6.10;;;7.50;99.90;;;;;;5074675;28;20170;-74
2022/03/01 10:31:42;;;;;;;10.90;5.93;;;7.40;99.90;;;;;;5091247;28;20274;-74
2022/03/01 10:34:11;;;;;;;11.07;6.10;;;7.80;99.90;;;;;;5091374;28;20207;-74
2022/03/01 10:36:44;;;;;;;10.20;5.90;;;7.50;99.90;;;;;;5091189;28;20289;-74
2022/03/01 10:39:16;;;;;;;9.50;5.97;;;7.30;99.90;;;;;;5087768;28;20202;-75
2022/03/01 10:41:44;;;;;;;12.30;6.03;;;7.10;99.80;;;;;;5072166;28;20684;-73
2022/03/01 10:44:15;;;;;;;8.57;5.57;;;7.10;99.90;;;;;;5092156;28;20181;-74
2022/03/01 10:46:43;;;;;;;9.33;6.23;;;7.00;99.90;;;;;;5075440;28;20961;-74
2022/03/01 10:49:15;;;;;;;10.13;5.87;;;7.50;99.90;;;;;;5092521;28;20198;-75
2022/03/01 10:51:50;;;;;;;13.90;5.50;;;7.70;99.90;;;;;;5092878;28;20872;-74
2022/03/01 10:54:35;;;;;;;9.63;5.67;;;7.50;99.70;;;;;;5074004;28;20203;-74
2022/03/01 10:57:04;;;;;;;11.17;5.87;;;7.50;99.90;;;;;;5059963;28;20210;-74
2022/03/01 10:59:32;;;;;;;8.93;5.23;;;7.60;99.90;;;;;;5086110;28;20202;-76
2022/03/01 11:01:58;;;;;;;8.63;5.67;;;7.50;99.90;;;;;;5087982;28;20178;-73
2022/03/01 11:04:25;;;;;;;12.83;6.43;;;7.20;99.90;;;;;;5071809;28;20183;-74
2022/03/01 11:06:56;;;;;;;11.10;6.27;;;7.30;99.90;;;;;;5088099;28;20779;-74
2022/03/01 11:09:25;;;;;;;11.10;5.77;;;7.50;99.90;;;;;;5087305;28;20262;-74
2022/03/01 11:11:52;;;;;;;13.27;5.47;;;7.60;99.70;;;;;;5088212;28;20324;-73
2022/03/01 11:14:24;;;;;;;9.67;4.97;;;7.30;99.40;;;;;;5092704;28;20217;-74
2022/03/01 11:17:04;;;;;;;11.70;6.43;;;7.20;98.80;;;;;;5093389;28;20559;-73
2022/03/01 11:19:58;;;;;;;7.33;5.00;;;7.40;99.80;;;;;;5072554;28;20288;-74
2022/03/01 11:22:28;;;;;;;9.30;5.73;;;7.50;99.90;;;;;;5065518;28;20243;-75
2022/03/01 11:24:54;;;;;;;7.80;5.33;;;7.60;99.30;;;;;;5088651;28;20213;-76
2022/03/01 11:27:23;;;;;;;9.27;4.87;;;7.20;99.50;;;;;;5092779;28;20580;-75
2022/03/01 11:29:50;;;;;;;8.97;5.33;;;7.60;99.20;;;;;;5091870;28;20625;-73
2022/03/01 11:32:20;;;;;;;13.73;4.60;;;7.80;99.00;;;;;;5092600;28;20182;-74
2022/03/01 11:34:46;;;;;;;9.07;4.83;;;7.80;98.50;;;;;;5071308;28;20178;-74
2022/03/01 11:37:22;;;;;;;10.87;5.73;;;7.70;98.80;;;;;;5067722;28;20203;-73
2022/03/01 11:39:56;;;;;;;9.43;6.00;;;7.80;98.40;;;;;;5079062;28;20224;-74
2022/03/01 11:42:22;;;;;;;7.07;4.90;;;7.50;98.50;;;;;;5074031;28;20209;-74
2022/03/01 11:44:51;;;;;;;9.90;5.37;;;7.70;98.70;;;;;;5092063;28;20202;-74
2022/03/01 11:47:30;;;;;;;9.33;5.60;;;7.80;98.90;;;;;;5092710;28;20586;-74
2022/03/01 11:49:56;;;;;;;10.00;5.53;;;8.20;99.20;;;;;;5073619;28;20198;-73
2022/03/01 11:52:25;;;;;;;9.57;5.03;;;8.20;98.10;;;;;;5091981;28;20234;-74
2022/03/01 11:54:53;;;;;;;7.90;5.17;;;8.30;97.90;;;;;;5069422;28;20774;-74
2022/03/01 11:57:27;;;;;;;8.53;5.27;;;8.20;97.80;;;;;;5069718;28;20260;-74
2022/03/01 11:59:57;;;;;;;9.60;5.30;;;7.70;98.20;;;;;;5091131;28;20194;-73
2022/03/01 12:02:25;;;;;;;8.37;4.97;;;7.90;99.00;;;;;;5091495;28;20232;-75
2022/03/01 12:04:53;;;;;;;11.07;5.57;;;7.90;98.90;;;;;;5087715;28;20201;-75
2022/03/01 12:07:21;;;;;;;7.33;4.77;;;8.20;98.60;;;;;;5072960;28;20211;-75
2022/03/01 12:09:59;;;;;;;7.73;4.90;;;8.20;98.30;;;;;;5082824;28;20918;-74
2022/03/01 12:12:33;;;;;;;7.23;4.40;;;8.00;97.80;;;;;;5082397;28;20678;-73
2022/03/01 12:14:59;;;;;;;9.93;5.50;;;8.00;98.10;;;;;;5073607;28;20213;-74
2022/03/01 12:17:25;;;;;;;7.43;4.83;;;8.20;98.80;;;;;;5073654;28;20221;-74
2022/03/01 12:20:00;;;;;;;8.27;5.03;;;8.00;98.20;;;;;;5086121;28;20167;-73
2022/03/01 12:22:26;;;;;;;7.87;4.73;;;8.20;98.00;;;;;;5091862;28;20214;-76
2022/03/01 12:24:51;;;;;;;11.20;5.33;;;8.30;97.90;;;;;;5073639;28;20271;-74
2022/03/01 12:27:18;;;;;;;12.17;5.90;;;8.60;97.90;;;;;;5091672;28;20251;-74
2022/03/01 12:29:47;;;;;;;9.53;5.00;;;8.80;98.00;;;;;;5084915;28;20210;-74
2022/03/01 12:32:13;;;;;;;6.37;4.90;;;8.80;97.50;;;;;;5084427;28;20221;-74
2022/03/01 12:34:40;;;;;;;9.17;5.63;;;8.70;97.80;;;;;;5086173;28;20166;-76
2022/03/01 12:37:08;;;;;;;7.30;4.73;;;8.70;97.20;;;;;;5085954;28;20767;-74
2022/03/01 12:39:34;;;;;;;7.57;4.43;;;8.30;96.50;;;;;;5065697;28;20234;-74
2022/03/01 12:42:00;;;;;;;9.57;4.83;;;8.30;96.50;;;;;;5070211;28;20206;-74